Time;durP1;ratioP1;P1;durP2;ratioP2;P2;SDS_P1;SDS_P2;PMS_P1;PMS_P2;Temp;Humidity;BMP_temperature;BMP_pressure;BME280_temperature;BME280_humidity;BME280_pressure;Samples;Min_cycle;Max_cycle;Signal;HPM_P1;HPM_P2
2021/11/15 00:00:54;;;;;;;22.23;12.75;;;;;;;7.04;100.00;98609.41;4977823;28;20028;-77
2021/11/15 00:03:21;;;;;;;25.35;13.55;;;;;;;7.08;100.00;98613.25;4978408;28;20006;-75
2021/11/15 00:05:46;;;;;;;24.45;12.73;;;;;;;7.00;100.00;98619.16;4979742;28;20019;-75
2021/11/15 00:08:12;;;;;;;24.83;14.07;;;;;;;6.95;100.00;98621.84;4979756;28;20058;-73
2021/11/15 00:10:37;;;;;;;29.88;16.52;;;;;;;6.90;100.00;98624.47;4979729;28;20063;-72
2021/11/15 00:13:03;;;;;;;26.65;15.07;;;;;;;6.84;100.00;98631.75;4979870;28;20031;-72
2021/11/15 00:15:29;;;;;;;33.38;16.90;;;;;;;6.82;100.00;98625.78;4978547;28;20070;-72
2021/11/15 00:17:57;;;;;;;35.47;17.80;;;;;;;6.88;100.00;98626.63;4979850;28;20043;-73
2021/11/15 00:20:23;;;;;;;28.75;14.63;;;;;;;6.96;100.00;98623.44;4963236;28;20969;-72
2021/11/15 00:22:49;;;;;;;31.80;15.25;;;;;;;6.97;100.00;98639.53;4979681;28;20038;-75
2021/11/15 00:25:15;;;;;;;25.63;14.15;;;;;;;6.99;100.00;98634.66;4979741;28;20012;-71
2021/11/15 00:27:41;;;;;;;30.45;15.00;;;;;;;6.95;100.00;98635.44;4979648;28;20035;-72
2021/11/15 00:30:09;;;;;;;27.00;16.05;;;;;;;6.88;100.00;98641.06;4978854;28;20031;-81
2021/11/15 00:32:34;;;;;;;28.73;14.50;;;;;;;6.90;100.00;98632.63;4979085;28;20042;-81
2021/11/15 00:35:00;;;;;;;25.90;13.93;;;;;;;7.07;100.00;98641.53;4979470;28;20015;-72
2021/11/15 00:37:25;;;;;;;28.30;15.20;;;;;;;6.98;100.00;98637.63;4979042;28;20023;-82
2021/11/15 00:39:50;;;;;;;29.63;14.45;;;;;;;6.97;100.00;98641.41;4978001;29;20027;-80
2021/11/15 00:42:17;;;;;;;31.23;15.73;;;;;;;7.03;100.00;98645.84;4977194;28;20035;-77
2021/11/15 00:44:42;;;;;;;24.33;13.88;;;;;;;6.95;100.00;98640.88;4979768;28;20035;-72
2021/11/15 00:47:08;;;;;;;31.05;15.27;;;;;;;6.91;100.00;98639.72;4977149;28;20014;-80
2021/11/15 00:49:34;;;;;;;32.20;16.13;;;;;;;6.86;100.00;98642.41;4978192;28;20006;-78
2021/11/15 00:52:00;;;;;;;33.30;15.98;;;;;;;6.80;100.00;98633.34;4970090;28;20035;-80
2021/11/15 00:54:26;;;;;;;34.08;16.48;;;;;;;6.80;100.00;98636.06;4959956;29;20090;-81
2021/11/15 00:56:51;;;;;;;30.58;16.95;;;;;;;6.82;100.00;98633.94;4976727;28;20110;-80
2021/11/15 00:59:17;;;;;;;36.85;18.00;;;;;;;6.87;100.00;98635.88;4976092;28;20504;-80
2021/11/15 01:01:42;;;;;;;38.72;17.67;;;;;;;6.95;100.00;98624.56;4967804;28;20029;-77
2021/11/15 01:04:08;;;;;;;35.03;17.95;;;;;;;6.97;100.00;98623.22;4975764;28;20052;-77
2021/11/15 01:06:34;;;;;;;34.92;18.02;;;;;;;7.06;100.00;98622.75;4970200;29;20045;-79
2021/11/15 01:08:59;;;;;;;33.60;16.77;;;;;;;7.11;100.00;98618.16;4974497;28;20074;-76
2021/11/15 01:11:25;;;;;;;34.22;18.13;;;;;;;7.07;100.00;98619.78;4981620;28;20028;-73
2021/11/15 01:13:52;;;;;;;37.70;18.35;;;;;;;7.13;100.00;98613.31;4982629;28;20015;-79
2021/11/15 01:16:18;;;;;;;35.58;18.60;;;;;;;7.22;100.00;98622.66;4982506;28;20054;-76
2021/11/15 01:18:44;;;;;;;34.10;17.88;;;;;;;7.15;100.00;98627.47;4981270;28;20042;-77
2021/11/15 01:21:11;;;;;;;34.33;17.40;;;;;;;7.11;100.00;98631.78;4981729;28;20078;-74
2021/11/15 01:23:38;;;;;;;40.45;19.65;;;;;;;7.04;100.00;98623.00;4977187;28;20032;-80
2021/11/15 01:26:05;;;;;;;34.97;18.75;;;;;;;6.95;100.00;98627.28;4973597;29;20012;-80
2021/11/15 01:28:31;;;;;;;37.72;19.15;;;;;;;7.02;100.00;98622.44;4978366;29;20012;-80
2021/11/15 01:30:56;;;;;;;40.03;18.80;;;;;;;7.12;100.00;98625.25;4982008;28;20087;-73
2021/11/15 01:33:22;;;;;;;37.97;19.13;;;;;;;6.96;100.00;98623.44;5000104;28;20035;-76
2021/11/15 01:35:47;;;;;;;37.90;20.25;;;;;;;6.87;100.00;98622.28;5001712;28;20019;-77
2021/11/15 01:38:13;;;;;;;36.67;19.38;;;;;;;7.00;100.00;98627.31;4984065;28;20017;-73
2021/11/15 01:40:38;;;;;;;42.38;19.98;;;;;;;7.03;100.00;98621.38;4965956;28;20039;-78
2021/11/15 01:43:04;;;;;;;35.70;19.30;;;;;;;7.08;100.00;98620.59;4981234;28;20039;-81
2021/11/15 01:45:32;;;;;;;37.25;18.95;;;;;;;6.98;100.00;98624.03;4981629;28;20047;-72
2021/11/15 01:48:01;;;;;;;34.70;19.20;;;;;;;6.88;100.00;98621.19;4982239;28;20023;-79
2021/11/15 01:50:27;;;;;;;39.60;20.25;;;;;;;6.92;100.00;98616.91;4982017;28;20027;-78
2021/11/15 01:52:53;;;;;;;33.88;19.55;;;;;;;6.96;100.00;98616.13;4980224;29;20028;-78
2021/11/15 01:55:20;;;;;;;35.17;17.98;;;;;;;6.92;100.00;98616.91;4977849;29;20016;-79
2021/11/15 01:57:48;;;;;;;43.50;20.85;;;;;;;6.83;100.00;98623.84;4960108;29;20035;-80
2021/11/15 02:00:24;;;;;;;42.53;21.65;;;;;;;6.81;100.00;98626.00;4961826;29;20027;-80
2021/11/15 02:02:49;;;;;;;42.40;21.25;;;;;;;6.88;100.00;98613.88;4959000;29;20162;-80
2021/11/15 02:05:15;;;;;;;39.85;20.67;;;;;;;6.82;100.00;98614.06;4959383;29;20082;-78
2021/11/15 02:07:41;;;;;;;42.75;21.10;;;;;;;6.90;100.00;98613.59;4960866;28;20564;-79
2021/11/15 02:10:10;;;;;;;45.58;21.88;;;;;;;6.73;100.00;98610.16;4965885;28;20027;-79
2021/11/15 02:12:37;;;;;;;45.30;22.60;;;;;;;6.62;100.00;98613.81;4968706;28;20154;-80
2021/11/15 02:15:04;;;;;;;53.50;25.40;;;;;;;6.51;100.00;98617.50;4987380;28;20054;-78
2021/11/15 02:17:31;;;;;;;52.83;24.63;;;;;;;6.50;100.00;98619.38;5000887;28;20094;-75
2021/11/15 02:20:02;;;;;;;47.10;24.35;;;;;;;6.63;100.00;98608.13;5000063;28;20030;-74
2021/11/15 02:22:28;;;;;;;47.83;23.40;;;;;;;6.75;100.00;98611.53;5001183;28;20015;-72
2021/11/15 02:24:53;;;;;;;43.90;22.60;;;;;;;6.68;100.00;98618.25;5000797;28;20018;-76
2021/11/15 02:27:19;;;;;;;49.20;23.08;;;;;;;6.74;100.00;98619.94;5001103;28;20006;-71
2021/11/15 02:29:44;;;;;;;41.33;22.98;;;;;;;6.60;100.00;98608.66;5001155;28;20014;-72
2021/11/15 02:32:09;;;;;;;48.22;23.80;;;;;;;6.57;100.00;98613.75;5001230;28;20037;-74
2021/11/15 02:34:35;;;;;;;42.53;22.27;;;;;;;6.66;100.00;98601.38;5001093;28;20042;-77
2021/11/15 02:37:01;;;;;;;46.72;23.48;;;;;;;6.58;100.00;98612.69;5001001;28;20019;-72
2021/11/15 02:39:26;;;;;;;43.03;22.90;;;;;;;6.61;100.00;98620.34;5000687;28;20033;-72
2021/11/15 02:41:51;;;;;;;44.00;22.67;;;;;;;6.66;100.00;98613.06;5000916;28;20038;-72
2021/11/15 02:44:17;;;;;;;44.88;22.77;;;;;;;6.71;100.00;98615.00;5000902;28;20007;-73
2021/11/15 02:46:43;;;;;;;45.78;22.75;;;;;;;6.74;100.00;98618.03;5000989;28;20034;-72
2021/11/15 02:49:08;;;;;;;46.50;22.80;;;;;;;6.68;100.00;98615.50;5000679;28;20037;-76
2021/11/15 02:51:34;;;;;;;39.15;21.73;;;;;;;6.66;100.00;98617.69;5000751;28;20030;-72
2021/11/15 02:53:59;;;;;;;42.08;23.55;;;;;;;6.65;100.00;98616.03;5000570;28;20014;-72
2021/11/15 02:56:25;;;;;;;46.13;23.38;;;;;;;6.73;100.00;98618.31;5000658;28;20082;-72
2021/11/15 02:58:51;;;;;;;39.30;20.63;;;;;;;6.77;100.00;98624.88;5000568;28;20030;-72
2021/11/15 03:01:19;;;;;;;46.08;23.25;;;;;;;6.69;100.00;98614.44;5000500;28;20046;-72
2021/11/15 03:03:44;;;;;;;39.85;20.92;;;;;;;6.77;100.00;98624.88;5000340;28;20011;-72
2021/11/15 03:06:10;;;;;;;41.90;21.45;;;;;;;6.73;100.00;98631.91;5000264;28;20046;-71
2021/11/15 03:08:37;;;;;;;40.75;21.35;;;;;;;6.62;100.00;98636.38;4994142;28;20835;-77
2021/11/15 03:11:05;;;;;;;44.75;22.25;;;;;;;6.60;100.00;98635.00;4980825;28;20030;-74
2021/11/15 03:13:37;;;;;;;40.83;21.67;;;;;;;6.47;100.00;98637.03;4980926;28;20040;-75
2021/11/15 03:16:03;;;;;;;41.80;22.75;;;;;;;6.48;100.00;98638.66;4981253;28;20015;-72
2021/11/15 03:18:32;;;;;;;44.30;23.83;;;;;;;6.43;100.00;98637.75;4980821;28;20015;-76
2021/11/15 03:21:06;;;;;;;43.40;23.45;;;;;;;6.45;100.00;98639.16;4980647;28;20043;-73
2021/11/15 03:23:33;;;;;;;45.33;23.80;;;;;;;6.39;100.00;98645.59;4980783;28;20060;-76
2021/11/15 03:26:00;;;;;;;44.35;22.38;;;;;;;6.47;100.00;98637.03;4980666;28;20022;-72
2021/11/15 03:28:29;;;;;;;45.97;22.52;;;;;;;6.56;100.00;98642.84;4980686;28;20017;-73
2021/11/15 03:31:01;;;;;;;41.13;21.60;;;;;;;6.58;100.00;98645.31;4980534;28;20031;-72
2021/11/15 03:33:28;;;;;;;39.38;20.27;;;;;;;6.61;100.00;98645.59;4980282;28;20496;-83
2021/11/15 03:35:53;;;;;;;40.05;21.83;;;;;;;6.66;100.00;98653.00;4980275;28;20026;-78
2021/11/15 03:38:19;;;;;;;39.70;20.20;;;;;;;6.56;100.00;98642.00;4963872;28;20003;-72
2021/11/15 03:40:45;;;;;;;42.28;21.15;;;;;;;6.59;100.00;98644.22;4980430;28;20068;-76
2021/11/15 03:43:11;;;;;;;42.53;23.45;;;;;;;6.55;100.00;98643.91;4980468;28;20018;-75
2021/11/15 03:45:37;;;;;;;39.53;20.73;;;;;;;6.61;100.00;98650.25;4964326;28;20058;-73
2021/11/15 03:48:05;;;;;;;38.20;20.90;;;;;;;6.67;100.00;98647.31;4980346;28;20030;-72
2021/11/15 03:50:30;;;;;;;40.15;21.00;;;;;;;6.63;100.00;98648.91;4980325;28;20007;-73
2021/11/15 03:52:57;;;;;;;39.05;21.08;;;;;;;6.54;100.00;98649.59;4980192;28;20015;-73
2021/11/15 03:55:23;;;;;;;45.33;23.02;;;;;;;6.51;100.00;98647.38;4980227;28;20018;-74
2021/11/15 03:57:49;;;;;;;37.85;19.90;;;;;;;6.50;100.00;98653.88;4979898;28;20019;-72
2021/11/15 04:00:19;;;;;;;40.63;20.85;;;;;;;6.57;100.00;98641.78;4980016;28;20031;-72
2021/11/15 04:02:50;;;;;;;36.17;19.85;;;;;;;6.58;100.00;98651.53;4963558;28;20035;-73
2021/11/15 04:05:22;;;;;;;40.55;22.08;;;;;;;6.57;100.00;98646.38;4980139;28;20023;-72
2021/11/15 04:07:49;;;;;;;35.42;19.55;;;;;;;6.68;100.00;98648.97;4979909;28;20078;-72
2021/11/15 04:10:26;;;;;;;35.08;20.13;;;;;;;6.88;100.00;98648.41;4980051;28;20014;-73
2021/11/15 04:12:54;;;;;;;32.15;19.00;;;;;;;6.83;100.00;98657.28;4978987;28;20027;-72
2021/11/15 04:15:20;;;;;;;39.40;19.48;;;;;;;6.85;100.00;98649.72;4963739;28;20021;-75
2021/11/15 04:17:47;;;;;;;38.00;19.38;;;;;;;6.92;100.00;98650.34;4979663;28;20019;-74
2021/11/15 04:20:16;;;;;;;39.40;19.55;;;;;;;6.99;100.00;98652.84;4963210;28;20039;-73
2021/11/15 04:22:42;;;;;;;39.00;18.27;;;;;;;7.01;100.00;98658.88;4979850;28;20047;-71
2021/11/15 04:25:09;;;;;;;39.25;19.63;;;;;;;7.00;100.00;98657.22;4979911;28;20019;-72
2021/11/15 04:27:34;;;;;;;38.70;20.02;;;;;;;7.07;100.00;98657.84;4979834;28;20024;-74
2021/11/15 04:30:04;;;;;;;36.88;19.38;;;;;;;7.10;100.00;98660.06;4979574;28;20007;-72
2021/11/15 04:32:29;;;;;;;36.58;18.83;;;;;;;7.03;100.00;98662.16;4991302;28;20041;-71
2021/11/15 04:34:55;;;;;;;41.17;21.45;;;;;;;7.00;100.00;98652.63;4998936;28;20034;-72
2021/11/15 04:37:21;;;;;;;50.70;29.98;;;;;;;7.10;100.00;98651.09;4998829;28;20019;-74
2021/11/15 04:39:46;;;;;;;53.05;27.85;;;;;;;7.05;100.00;98654.56;4999135;28;20010;-71
2021/11/15 04:42:12;;;;;;;44.83;24.05;;;;;;;7.04;100.00;98647.50;4982020;28;20086;-73
2021/11/15 04:44:37;;;;;;;39.08;20.83;;;;;;;7.08;100.00;98653.25;5004150;28;20042;-74
2021/11/15 04:47:03;;;;;;;55.95;26.98;;;;;;;7.07;100.00;98649.69;5005642;28;20742;-72
2021/11/15 04:49:28;;;;;;;34.90;20.38;;;;;;;6.91;100.00;98640.56;5005235;28;20030;-72
2021/11/15 04:51:54;;;;;;;36.22;19.90;;;;;;;6.99;100.00;98650.97;5005283;28;20023;-72
2021/11/15 04:54:19;;;;;;;37.30;20.20;;;;;;;6.97;100.00;98649.59;5005341;28;20083;-72
2021/11/15 04:56:45;;;;;;;38.78;20.27;;;;;;;6.91;100.00;98653.31;5005126;28;20046;-72
2021/11/15 04:59:11;;;;;;;35.13;20.00;;;;;;;6.83;100.00;98656.47;5005195;28;20019;-72
2021/11/15 05:01:38;;;;;;;37.72;21.05;;;;;;;6.85;100.00;98662.50;5005030;28;20050;-74
2021/11/15 05:04:04;;;;;;;39.08;20.83;;;;;;;6.91;100.00;98658.75;5004881;28;20007;-74
2021/11/15 05:06:30;;;;;;;38.13;18.70;;;;;;;6.91;100.00;98661.47;5005071;28;20042;-72
2021/11/15 05:08:55;;;;;;;35.58;19.48;;;;;;;6.91;100.00;98656.03;5004925;28;20019;-72
2021/11/15 05:11:21;;;;;;;38.58;19.48;;;;;;;6.92;100.00;98663.13;5005193;28;20014;-75
2021/11/15 05:13:47;;;;;;;38.83;20.20;;;;;;;6.92;100.00;98660.41;4986075;28;20027;-80
2021/11/15 05:16:13;;;;;;;36.97;19.95;;;;;;;6.90;100.00;98657.94;5003145;28;20050;-80
2021/11/15 05:18:38;;;;;;;33.65;20.35;;;;;;;6.88;100.00;98672.88;5003356;28;20022;-81
2021/11/15 05:21:03;;;;;;;38.33;20.45;;;;;;;6.88;100.00;98670.16;5004987;28;20042;-72
2021/11/15 05:23:29;;;;;;;36.63;20.15;;;;;;;6.84;100.00;98667.09;5005114;28;20022;-74
2021/11/15 05:25:55;;;;;;;36.45;19.30;;;;;;;6.94;100.00;98674.56;4988375;28;20007;-72
2021/11/15 05:28:21;;;;;;;37.45;19.98;;;;;;;6.94;100.00;98674.56;5003123;28;20049;-80
2021/11/15 05:30:47;;;;;;;40.22;21.42;;;;;;;6.98;100.00;98667.56;4997585;28;20050;-77
2021/11/15 05:33:12;;;;;;;39.53;19.85;;;;;;;6.98;100.00;98670.28;4994189;28;20026;-78
2021/11/15 05:35:38;;;;;;;39.10;20.90;;;;;;;6.95;100.00;98678.94;5000989;28;20095;-76
2021/11/15 05:38:04;;;;;;;39.20;21.40;;;;;;;7.00;100.00;98681.72;5004075;28;20019;-73
2021/11/15 05:40:30;;;;;;;40.17;21.25;;;;;;;6.99;100.00;98688.22;5004218;28;20011;-78
2021/11/15 05:42:56;;;;;;;40.38;20.52;;;;;;;6.95;100.00;98697.97;5004062;28;20042;-72
2021/11/15 05:45:24;;;;;;;42.63;22.35;;;;;;;6.95;100.00;98698.78;5001755;28;20046;-74
2021/11/15 05:47:49;;;;;;;41.95;22.67;;;;;;;6.98;100.00;98697.47;5004553;28;20014;-71
2021/11/15 05:50:17;;;;;;;43.72;22.33;;;;;;;6.96;100.00;98686.81;5004485;28;20051;-71
2021/11/15 05:52:43;;;;;;;44.35;22.95;;;;;;;7.00;100.00;98703.47;5003707;28;20015;-72
2021/11/15 05:55:12;;;;;;;48.03;22.95;;;;;;;7.04;100.00;98701.88;5002017;28;20095;-71
2021/11/15 05:57:38;;;;;;;45.95;22.65;;;;;;;7.05;100.00;98706.22;4996599;28;20023;-71
2021/11/15 06:00:09;;;;;;;56.10;25.27;;;;;;;7.10;100.00;98719.09;4982200;28;20019;-72
2021/11/15 06:02:35;;;;;;;48.15;24.77;;;;;;;7.10;100.00;98719.91;4982353;28;20055;-73
2021/11/15 06:05:00;;;;;;;48.75;24.88;;;;;;;7.14;100.00;98717.50;4982041;28;20031;-72
2021/11/15 06:07:26;;;;;;;54.00;26.80;;;;;;;7.06;100.00;98726.94;4981939;28;20036;-77
2021/11/15 06:09:51;;;;;;;54.25;25.98;;;;;;;7.05;100.00;98725.28;4981205;28;20023;-71
2021/11/15 06:12:17;;;;;;;53.17;26.50;;;;;;;7.11;100.00;98732.41;4981846;28;20020;-72
2021/11/15 06:14:42;;;;;;;51.38;26.52;;;;;;;7.10;100.00;98730.78;4981560;28;20038;-79
2021/11/15 06:17:07;;;;;;;51.17;27.30;;;;;;;7.16;100.00;98729.78;4982153;28;20018;-72
2021/11/15 06:19:33;;;;;;;59.40;28.55;;;;;;;7.19;100.00;98731.16;4984216;28;20039;-72
2021/11/15 06:21:58;;;;;;;50.80;25.38;;;;;;;7.24;100.00;98740.19;4988375;28;20039;-71
2021/11/15 06:24:24;;;;;;;55.25;27.15;;;;;;;7.40;100.00;98746.63;4981740;28;20031;-71
2021/11/15 06:26:49;;;;;;;42.85;24.95;;;;;;;7.33;100.00;98744.09;4981290;28;20042;-79
2021/11/15 06:29:15;;;;;;;42.17;23.38;;;;;;;7.39;100.00;98755.91;4994236;28;20027;-72
2021/11/15 06:31:40;;;;;;;44.08;23.60;;;;;;;7.30;100.00;98760.16;5001113;28;20079;-71
2021/11/15 06:34:05;;;;;;;39.92;23.30;;;;;;;7.30;100.00;98760.94;4999602;28;20070;-79
2021/11/15 06:36:31;;;;;;;44.67;23.33;;;;;;;7.41;100.00;98768.16;5000771;28;20065;-76
2021/11/15 06:38:58;;;;;;;46.55;23.92;;;;;;;7.39;100.00;98755.91;4999648;28;20031;-80
2021/11/15 06:41:25;;;;;;;49.25;24.35;;;;;;;7.36;100.00;98768.09;4982673;28;20041;-72
2021/11/15 06:43:51;;;;;;;52.88;25.52;;;;;;;7.37;100.00;98766.19;4960121;29;20022;-79
2021/11/15 06:46:17;;;;;;;48.92;24.83;;;;;;;7.43;100.00;98759.72;4981987;28;20043;-79
2021/11/15 06:48:43;;;;;;;50.47;25.65;;;;;;;7.46;100.00;98762.75;4990328;28;20035;-76
2021/11/15 06:51:10;;;;;;;54.08;26.38;;;;;;;7.47;100.00;98760.88;4964035;28;20031;-81
2021/11/15 06:53:38;;;;;;;48.78;24.80;;;;;;;7.49;100.00;98772.31;4997867;28;20066;-71
2021/11/15 06:56:05;;;;;;;48.55;23.92;;;;;;;7.53;100.00;98774.28;5001137;28;20007;-74
2021/11/15 06:58:31;;;;;;;45.10;24.15;;;;;;;7.59;100.00;98763.44;4997781;28;20062;-76
2021/11/15 07:00:57;;;;;;;45.80;23.38;;;;;;;7.59;100.00;98763.44;4979244;28;20014;-72
2021/11/15 07:03:23;;;;;;;45.65;24.95;;;;;;;7.63;100.00;98768.13;4981249;28;20007;-70
2021/11/15 07:05:48;;;;;;;48.35;25.77;;;;;;;7.70;100.00;98770.66;4980869;28;20046;-80
2021/11/15 07:08:15;;;;;;;49.85;26.30;;;;;;;7.75;100.00;98766.06;4999833;28;20042;-70
2021/11/15 07:10:40;;;;;;;51.83;25.95;;;;;;;7.75;100.00;98763.34;5000460;28;20010;-70
2021/11/15 07:13:06;;;;;;;58.75;27.60;;;;;;;7.63;100.00;98772.75;4999849;28;20029;-71
2021/11/15 07:15:31;;;;;;;56.50;28.40;;;;;;;7.70;100.00;98773.38;5000476;28;20026;-70
2021/11/15 07:17:57;;;;;;;54.08;27.42;;;;;;;7.76;100.00;98777.78;5000171;28;20046;-71
2021/11/15 07:20:22;;;;;;;53.42;26.27;;;;;;;7.64;100.00;98766.25;5000164;28;20019;-70
2021/11/15 07:22:49;;;;;;;49.15;26.73;;;;;;;7.76;100.00;98778.63;5000012;28;20022;-70
2021/11/15 07:25:20;;;;;;;55.63;26.45;;;;;;;7.85;100.00;98785.25;4994277;28;20022;-79
2021/11/15 07:27:48;;;;;;;54.85;28.17;;;;;;;7.90;100.00;98782.56;4981262;28;20015;-81
2021/11/15 07:30:14;;;;;;;56.85;27.40;;;;;;;7.99;100.00;98785.63;4998392;28;20035;-81
2021/11/15 07:32:40;;;;;;;59.08;27.65;;;;;;;8.02;100.00;98779.66;4972571;28;20033;-74
2021/11/15 07:35:06;;;;;;;51.15;25.80;;;;;;;8.11;100.00;98785.50;4990330;28;20055;-79
2021/11/15 07:37:31;;;;;;;53.78;27.27;;;;;;;8.14;100.00;98788.53;4981932;28;20023;-72
2021/11/15 07:39:57;;;;;;;53.38;26.75;;;;;;;8.08;100.00;98784.91;4960714;29;20039;-79
2021/11/15 07:42:22;;;;;;;52.70;27.73;;;;;;;8.00;100.00;98788.13;4987720;28;20098;-76
2021/11/15 07:44:48;;;;;;;53.80;25.92;;;;;;;7.92;100.00;98790.50;4998017;28;20078;-78
2021/11/15 07:47:15;;;;;;;50.05;25.88;;;;;;;7.93;100.00;98781.22;4990257;28;20011;-77
2021/11/15 07:49:43;;;;;;;48.45;25.85;;;;;;;8.01;100.00;98781.59;4982234;28;20074;-78
2021/11/15 07:52:09;;;;;;;45.63;23.75;;;;;;;7.96;100.00;98786.16;4968949;28;20011;-76
2021/11/15 07:54:34;;;;;;;44.75;24.23;;;;;;;8.06;100.00;98786.25;4962885;28;20022;-75
2021/11/15 07:57:00;;;;;;;45.33;23.67;;;;;;;8.05;100.00;98795.50;4979731;28;20054;-73
2021/11/15 07:59:27;;;;;;;44.47;22.70;;;;;;;8.06;100.00;98792.53;4979101;28;20108;-77
2021/11/15 08:01:52;;;;;;;42.67;21.60;;;;;;;8.06;100.00;98797.16;4979513;28;20028;-74
2021/11/15 08:04:18;;;;;;;41.38;20.95;;;;;;;8.19;100.00;98793.19;4978985;28;20054;-77
2021/11/15 08:06:44;;;;;;;41.72;21.58;;;;;;;8.22;100.00;98793.50;4977523;28;20063;-79
2021/11/15 08:09:10;;;;;;;37.78;21.13;;;;;;;8.22;100.00;98796.22;4978241;28;20035;-77
2021/11/15 08:11:37;;;;;;;37.03;19.75;;;;;;;8.23;100.00;98794.31;4985184;28;20086;-80
2021/11/15 08:14:06;;;;;;;35.22;19.13;;;;;;;8.22;100.00;98793.50;4979249;28;20050;-82
2021/11/15 08:16:31;;;;;;;32.50;17.33;;;;;;;8.15;100.00;98794.78;4986460;28;20039;-76
2021/11/15 08:18:57;;;;;;;34.60;18.58;;;;;;;8.21;100.00;98789.09;4976856;28;20074;-79
2021/11/15 08:21:23;;;;;;;28.00;17.00;;;;;;;8.36;100.00;98797.47;4978503;28;20027;-79
2021/11/15 08:23:50;;;;;;;30.13;15.80;;;;;;;8.52;100.00;98804.66;4972263;28;20055;-79
2021/11/15 08:26:46;;;;;;;32.25;17.20;;;;;;;8.60;100.00;98801.47;4956539;28;20122;-75
2021/11/15 08:29:13;;;;;;;33.80;18.13;;;;;;;8.84;100.00;98792.88;4956002;29;20118;-78
2021/11/15 08:31:40;;;;;;;30.42;17.63;;;;;;;8.92;100.00;98793.22;4957539;28;20035;-80
2021/11/15 08:34:06;;;;;;;33.33;18.65;;;;;;;9.06;100.00;98796.28;4941620;29;20057;-80
2021/11/15 08:36:32;;;;;;;26.63;15.93;;;;;;;9.15;100.00;98783.78;4959405;28;20039;-77
2021/11/15 08:39:02;;;;;;;29.55;15.88;;;;;;;9.18;100.00;98787.91;4960132;28;20030;-79
2021/11/15 08:41:34;;;;;;;23.98;14.77;;;;;;;9.10;100.00;98772.84;4963921;28;20039;-78
2021/11/15 08:44:02;;;;;;;27.50;15.90;;;;;;;9.39;100.00;98790.47;4969592;28;20083;-78
2021/11/15 08:46:29;;;;;;;28.77;16.55;;;;;;;9.33;100.00;98786.06;4989480;28;20042;-77
2021/11/15 08:48:56;;;;;;;24.70;14.35;;;;;;;9.25;100.00;98794.75;4981065;28;20029;-80
2021/11/15 08:51:23;;;;;;;22.73;13.10;;;;;;;9.10;100.00;98795.50;4981611;28;20106;-79
2021/11/15 08:53:50;;;;;;;25.73;15.02;;;;;;;9.04;100.00;98793.00;4983578;28;20033;-78
2021/11/15 08:56:17;;;;;;;39.67;17.75;;;;;;;8.97;100.00;98803.34;4982526;28;20023;-79
2021/11/15 08:58:43;;;;;;;27.15;15.15;;;;;;;9.01;100.00;98796.28;4981143;28;20097;-80
2021/11/15 09:01:09;;;;;;;29.92;15.63;;;;;;;9.18;100.00;98807.81;4981145;28;20023;-80
2021/11/15 09:03:38;;;;;;;28.65;14.02;;;;;;;9.20;100.00;98797.47;4980658;28;20455;-79
2021/11/15 09:06:08;;;;;;;29.33;15.15;;;;;;;9.18;100.00;98794.16;4991930;28;20033;-80
2021/11/15 09:08:34;;;;;;;30.70;15.25;;;;;;;9.22;100.00;98811.66;4978951;28;20054;-79
2021/11/15 09:11:00;;;;;;;31.73;15.80;;;;;;;9.28;100.00;98798.84;4983923;28;20026;-80
2021/11/15 09:13:26;;;;;;;31.85;16.63;;;;;;;9.32;100.00;98800.78;4982632;28;20027;-81
2021/11/15 09:15:51;;;;;;;29.05;16.95;;;;;;;9.17;100.00;98808.09;4984946;28;20042;-80
2021/11/15 09:18:17;;;;;;;30.83;15.80;;;;;;;9.18;100.00;98807.81;4983578;28;20034;-78
2021/11/15 09:20:42;;;;;;;31.63;16.55;;;;;;;9.20;100.00;98808.38;4987858;28;20027;-79
2021/11/15 09:23:08;;;;;;;31.95;16.38;;;;;;;9.35;100.00;98804.91;4984246;28;20027;-80
2021/11/15 09:25:35;;;;;;;28.13;16.17;;;;;;;9.27;100.00;98800.75;4984609;28;20387;-79
2021/11/15 09:28:01;;;;;;;29.70;15.85;;;;;;;9.31;100.00;98799.16;4970685;28;20034;-79
2021/11/15 09:30:26;;;;;;;31.25;16.80;;;;;;;9.28;100.00;98802.41;4985689;28;20042;-79
2021/11/15 09:32:52;;;;;;;30.58;16.90;;;;;;;9.34;100.00;98803.25;4990754;28;20073;-80
2021/11/15 09:35:17;;;;;;;34.65;17.92;;;;;;;9.22;100.00;98794.44;4989526;28;20041;-80
2021/11/15 09:37:44;;;;;;;33.72;18.58;;;;;;;9.19;100.00;98809.47;4989665;28;20057;-80
2021/11/15 09:40:11;;;;;;;33.38;17.45;;;;;;;9.18;100.00;98813.25;4976246;28;20054;-79
2021/11/15 09:42:37;;;;;;;42.58;19.25;;;;;;;9.29;100.00;98809.53;4990838;28;20030;-80
2021/11/15 09:45:06;;;;;;;34.70;18.65;;;;;;;9.41;100.00;98810.13;4993829;28;20053;-76
2021/11/15 09:47:39;;;;;;;39.10;19.17;;;;;;;9.44;100.00;98804.13;4995679;28;20038;-81
2021/11/15 09:50:08;;;;;;;33.88;20.13;;;;;;;9.58;100.00;98805.28;4970886;28;20039;-80
2021/11/15 09:52:35;;;;;;;38.40;19.63;;;;;;;9.75;100.00;98815.13;4977731;28;20054;-81
2021/11/15 09:55:04;;;;;;;38.53;20.58;;;;;;;9.68;100.00;98816.22;4989850;28;20023;-78
2021/11/15 09:57:30;;;;;;;39.22;20.77;;;;;;;9.68;100.00;98808.03;4991444;28;20049;-79
2021/11/15 09:59:57;;;;;;;44.38;20.83;;;;;;;9.28;100.00;98802.41;4980089;28;20032;-80
2021/11/15 10:02:23;;;;;;;37.58;20.20;;;;;;;9.54;100.00;98804.16;4956233;29;20023;-78
2021/11/15 10:04:49;;;;;;;40.08;20.63;;;;;;;9.73;100.00;98807.22;4975407;29;20015;-76
2021/11/15 10:07:14;;;;;;;40.47;21.02;;;;;;;9.75;100.00;98812.41;4975374;29;20035;-80
2021/11/15 10:09:42;;;;;;;38.88;20.73;;;;;;;9.95;100.00;98801.53;4970208;29;20027;-80
2021/11/15 10:12:15;;;;;;;41.63;21.17;;;;;;;10.11;100.00;98797.75;4971516;29;20031;-81
2021/11/15 10:15:01;;;;;;;40.90;22.23;;;;;;;10.02;100.00;98796.66;4980008;28;20026;-80
2021/11/15 10:17:44;;;;;;;40.42;21.50;;;;;;;10.05;100.00;98794.19;4994621;28;20034;-79
2021/11/15 10:20:10;;;;;;;41.58;21.70;;;;;;;10.15;100.00;98787.91;4983877;28;20097;-80
2021/11/15 10:22:36;;;;;;;41.97;20.40;;;;;;;10.16;100.00;98801.34;4987303;28;20027;-80
2021/11/15 10:25:02;;;;;;;42.40;21.50;;;;;;;10.14;100.00;98791.78;4989116;28;20034;-79
2021/11/15 10:27:29;;;;;;;40.38;20.35;;;;;;;10.16;100.00;98784.09;4973272;28;20035;-80
2021/11/15 10:29:55;;;;;;;43.88;21.33;;;;;;;10.16;100.00;98800.50;4991213;28;20027;-79
2021/11/15 10:32:29;;;;;;;39.35;21.30;;;;;;;9.68;100.00;98804.47;4987584;28;20019;-81
2021/11/15 10:35:00;;;;;;;37.85;20.58;;;;;;;9.94;100.00;98799.91;4987321;28;20030;-79
2021/11/15 10:37:34;;;;;;;38.33;20.92;;;;;;;9.97;100.00;98796.63;4972223;28;20062;-77
2021/11/15 10:40:11;;;;;;;37.50;21.60;;;;;;;10.02;100.00;98797.44;4982323;28;20029;-77
2021/11/15 10:42:42;;;;;;;40.90;21.92;;;;;;;10.25;100.00;98790.66;4973777;28;20026;-76
2021/11/15 10:45:19;;;;;;;39.35;21.25;;;;;;;9.73;100.00;98790.84;4974697;28;20062;-78
2021/11/15 10:47:50;;;;;;;41.83;21.95;;;;;;;9.82;100.00;98793.84;4959106;28;20077;-77
2021/11/15 10:50:55;;;;;;;40.35;22.85;;;;;;;9.95;100.00;98796.06;4976916;28;20031;-78
2021/11/15 10:53:44;;;;;;;49.42;24.35;;;;;;;9.69;100.00;98800.66;4978144;28;20034;-78
2021/11/15 10:56:29;;;;;;;43.97;23.17;;;;;;;9.81;100.00;98797.66;4972924;28;20411;-77
2021/11/15 10:58:55;;;;;;;41.72;22.10;;;;;;;9.97;100.00;98797.44;4937668;29;20035;-78
2021/11/15 11:01:32;;;;;;;43.63;22.50;;;;;;;9.98;100.00;98793.63;4955674;29;20087;-77
2021/11/15 11:04:11;;;;;;;41.13;23.23;;;;;;;9.58;100.00;98794.34;4954529;29;20046;-78
2021/11/15 11:07:03;;;;;;;45.15;23.77;;;;;;;9.74;100.00;98792.50;4954096;29;20583;-76
2021/11/15 11:09:36;;;;;;;48.55;24.95;;;;;;;10.01;100.00;98792.25;4970560;28;20081;-77
2021/11/15 11:12:15;;;;;;;41.38;24.60;;;;;;;9.99;100.00;98800.72;4956805;28;20022;-78
2021/11/15 11:14:43;;;;;;;44.03;24.10;;;;;;;10.18;99.68;98795.59;4974353;28;20033;-78
2021/11/15 11:17:09;;;;;;;41.53;22.30;;;;;;;10.38;97.30;98786.56;4960459;28;20058;-78